Terminal Aerodrome Forecast
Issued by NWS Blacksburg, VA

Home | Current Version | Previous Version | Text Only | Print | Product List | Glossary On
Versions: 1 2 3 4 5 6 7 8 9 10 11 12 13 14 15 16 17 18 19 20 21 22 23 24 25 26 27 28 29 30 31 32 33 34 35 36 37
000
FTUS41 KRNK 302322
TAFROA
TAF
KROA 302322Z 3100/3124 20004KT P6SM VCSH SCT040 SCT060
     FM310200 00000KT P6SM SCT120
     FM311300 23004KT P6SM SCT040 BKN100
     FM311900 21008KT P6SM VCTS BKN050CB=

USA.gov is the U.S. government's official web portal to all federal, state and local government web resources and services.